Time;durP1;ratioP1;P1;durP2;ratioP2;P2;SDS_P1;SDS_P2;PMS_P1;PMS_P2;Temp;Humidity;BMP_temperature;BMP_pressure;BME280_temperature;BME280_humidity;BME280_pressure;Samples;Min_cycle;Max_cycle;Signal;HPM_P1;HPM_P2
2022/10/26 00:00:39;;;;;;;1.05;0.60;;;;;;;20.52;37.33;99784.22;5059804;28;20028;-87
2022/10/26 00:03:04;;;;;;;0.70;0.60;;;;;;;20.53;37.33;99789.38;5049162;28;20027;-87
2022/10/26 00:05:32;;;;;;;0.50;0.50;;;;;;;20.50;37.72;99791.81;5063938;28;20112;-87
2022/10/26 00:07:57;;;;;;;0.50;0.50;;;;;;;20.48;37.38;99794.00;5047216;28;20440;-88
2022/10/26 00:10:23;;;;;;;0.68;0.52;;;;;;;20.53;37.10;99794.00;5067096;28;20070;-87
2022/10/26 00:12:49;;;;;;;0.82;0.60;;;;;;;20.50;37.55;99795.34;5042660;28;20059;-87
2022/10/26 00:15:16;;;;;;;0.63;0.60;;;;;;;20.52;37.76;99795.88;5064333;28;20017;-88
2022/10/26 00:17:41;;;;;;;0.70;0.50;;;;;;;20.49;37.64;99791.03;5063911;28;20025;-87
2022/10/26 00:20:07;;;;;;;0.60;0.50;;;;;;;20.47;37.81;99789.63;5046817;28;20028;-87
2022/10/26 00:22:33;;;;;;;0.45;0.45;;;;;;;20.51;37.42;99788.03;5066641;28;20025;-87
2022/10/26 00:24:59;;;;;;;0.80;0.60;;;;;;;20.48;37.71;99785.84;5060877;28;20538;-87
2022/10/26 00:27:24;;;;;;;0.70;0.60;;;;;;;20.45;37.53;99782.59;5066467;28;20071;-87
2022/10/26 00:29:50;;;;;;;0.50;0.50;;;;;;;20.41;38.39;99777.97;5048012;28;20106;-87
2022/10/26 00:32:15;;;;;;;1.00;0.68;;;;;;;20.45;37.57;99774.47;5046256;28;20483;-87
2022/10/26 00:34:41;;;;;;;1.05;0.60;;;;;;;20.43;37.72;99771.16;5067257;28;20103;-87
2022/10/26 00:37:07;;;;;;;0.75;0.52;;;;;;;20.43;38.11;99779.31;5061507;28;20084;-87
2022/10/26 00:39:32;;;;;;;0.50;0.50;;;;;;;20.38;37.78;99770.34;5067176;28;20064;-87
2022/10/26 00:41:58;;;;;;;0.60;0.60;;;;;;;20.43;37.61;99773.06;5060153;28;20025;-87
2022/10/26 00:44:42;;;;;;;0.50;0.50;;;;;;;20.39;38.15;99767.38;5048545;28;20021;-87
2022/10/26 00:47:31;;;;;;;0.50;0.50;;;;;;;20.37;37.48;99764.13;5064494;28;20288;-87
2022/10/26 00:49:58;;;;;;;0.63;0.50;;;;;;;20.40;38.15;99768.19;5042859;28;20119;-87
2022/10/26 00:52:24;;;;;;;0.70;0.52;;;;;;;20.36;38.33;99757.03;5070978;28;20045;-87
2022/10/26 00:54:50;;;;;;;0.60;0.60;;;;;;;20.37;38.06;99750.56;5045518;28;20022;-87
2022/10/26 00:57:16;;;;;;;0.45;0.45;;;;;;;20.31;37.80;99743.47;5070519;28;20366;-87
2022/10/26 00:59:42;;;;;;;0.50;0.50;;;;;;;20.36;38.15;99757.03;5051144;28;20035;-87
2022/10/26 01:02:07;;;;;;;0.50;0.50;;;;;;;20.36;38.06;99753.53;5069569;28;20107;-88
2022/10/26 01:04:36;;;;;;;0.55;0.55;;;;;;;20.34;38.44;99742.13;5052841;28;20085;-87
2022/10/26 01:07:03;;;;;;;0.60;0.60;;;;;;;20.36;38.31;99746.19;5063333;28;20082;-87
2022/10/26 01:09:28;;;;;;;0.45;0.45;;;;;;;20.27;37.68;99742.38;5070715;28;20416;-87
2022/10/26 01:11:54;;;;;;;0.52;0.50;;;;;;;20.17;38.00;99726.06;5049307;28;20075;-87
2022/10/26 01:14:19;;;;;;;0.70;0.60;;;;;;;20.35;38.33;99750.00;5068842;28;20071;-87
2022/10/26 01:16:58;;;;;;;0.65;0.63;;;;;;;20.33;38.11;99751.34;5070579;28;20029;-87
2022/10/26 01:20:06;;;;;;;0.50;0.50;;;;;;;20.35;38.06;99750.00;5043602;28;20058;-87
2022/10/26 01:22:39;;;;;;;0.30;0.30;;;;;;;20.31;38.30;99754.31;5054271;28;20532;-87
2022/10/26 01:25:20;;;;;;;0.43;0.43;;;;;;;20.29;38.48;99750.25;5066436;28;20075;-87
2022/10/26 01:27:49;;;;;;;0.50;0.50;;;;;;;20.27;38.54;99748.63;5068566;28;20139;-87
2022/10/26 01:30:43;;;;;;;0.50;0.50;;;;;;;20.29;38.25;99750.25;5046102;28;20025;-87
2022/10/26 01:33:18;;;;;;;0.55;0.55;;;;;;;20.28;38.83;99744.00;5049377;28;20039;-88
2022/10/26 01:35:51;;;;;;;0.77;0.40;;;;;;;20.29;38.47;99744.84;5047551;28;20017;-88
2022/10/26 01:38:26;;;;;;;0.35;0.35;;;;;;;20.27;38.42;99745.09;5049841;28;20016;-87
2022/10/26 01:41:24;;;;;;;0.40;0.30;;;;;;;20.29;38.40;99745.63;5070027;28;20470;-87
2022/10/26 01:43:54;;;;;;;0.52;0.52;;;;;;;20.29;38.48;99748.34;5066711;28;20024;-87
2022/10/26 01:46:21;;;;;;;0.68;0.55;;;;;;;20.22;38.13;99739.66;5052134;28;20389;-87
2022/10/26 01:48:46;;;;;;;0.65;0.45;;;;;;;20.28;38.40;99738.56;5034809;28;20029;-87
2022/10/26 01:51:12;;;;;;;1.83;0.50;;;;;;;20.28;38.70;99738.56;5051493;28;20039;-87
2022/10/26 01:53:43;;;;;;;1.95;0.50;;;;;;;20.26;38.18;99746.16;5066610;28;20432;-87
2022/10/26 01:56:12;;;;;;;0.50;0.50;;;;;;;20.22;38.99;99734.22;5065649;28;20033;-87
2022/10/26 01:59:07;;;;;;;0.47;0.40;;;;;;;20.21;38.83;99741.56;5052539;28;20060;-87
2022/10/26 02:01:49;;;;;;;0.98;0.60;;;;;;;20.22;38.64;99734.22;5062685;28;20548;-87
2022/10/26 02:04:42;;;;;;;0.70;0.50;;;;;;;20.24;38.91;99738.28;5069906;28;20026;-87
2022/10/26 02:07:07;;;;;;;0.50;0.50;;;;;;;20.20;38.85;99731.78;5047111;28;20032;-87
2022/10/26 02:10:11;;;;;;;0.50;0.50;;;;;;;20.16;38.95;99730.69;5068557;28;20040;-87
2022/10/26 02:12:44;;;;;;;0.60;0.60;;;;;;;20.20;39.11;99733.69;5057468;28;20071;-87
2022/10/26 02:15:25;;;;;;;0.30;0.30;;;;;;;20.19;38.94;99734.75;5049177;28;20028;-87
2022/10/26 02:18:03;;;;;;;0.55;0.50;;;;;;;20.22;38.60;99740.47;5064708;28;20085;-87
2022/10/26 02:20:38;;;;;;;0.55;0.50;;;;;;;20.19;39.04;99729.34;5067878;28;20037;-87
2022/10/26 02:23:04;;;;;;;0.60;0.60;;;;;;;20.15;39.17;99726.34;5034551;28;20017;-87
2022/10/26 02:25:32;;;;;;;0.40;0.40;;;;;;;20.18;39.10;99733.13;5028402;28;20032;-87
2022/10/26 02:28:00;;;;;;;0.40;0.40;;;;;;;20.21;39.08;99729.88;5034237;28;20048;-87
2022/10/26 02:30:26;;;;;;;0.70;0.60;;;;;;;20.21;39.04;99721.75;5047926;28;20430;-88
2022/10/26 02:32:53;;;;;;;0.50;0.50;;;;;;;20.17;39.10;99724.16;5068147;28;20100;-87
2022/10/26 02:35:20;;;;;;;0.75;0.50;;;;;;;20.19;38.88;99721.19;5049328;28;20400;-87
2022/10/26 02:37:46;;;;;;;0.52;0.45;;;;;;;20.18;39.05;99723.09;5047136;28;20548;-87
2022/10/26 02:40:13;;;;;;;1.20;0.68;;;;;;;20.20;38.98;99725.56;5068268;28;20116;-87
2022/10/26 02:42:39;;;;;;;0.40;0.40;;;;;;;20.18;38.95;99719.56;5046047;28;20089;-87
2022/10/26 02:45:07;;;;;;;0.43;0.43;;;;;;;20.18;39.49;99716.84;5067743;28;20028;-87
2022/10/26 02:47:33;;;;;;;0.30;0.30;;;;;;;20.13;39.44;99716.81;5064490;28;20028;-87
2022/10/26 02:49:58;;;;;;;0.50;0.50;;;;;;;20.17;39.03;99720.66;5025575;28;20043;-87
2022/10/26 02:52:32;;;;;;;0.50;0.50;;;;;;;20.14;39.21;99721.19;5067929;28;20433;-87
2022/10/26 02:55:02;;;;;;;0.40;0.40;;;;;;;20.15;39.43;99717.41;5063517;28;20040;-87
2022/10/26 02:57:40;;;;;;;0.50;0.50;;;;;;;20.13;39.48;99708.69;5033650;28;20387;-87
2022/10/26 03:00:07;;;;;;;0.50;0.50;;;;;;;20.13;39.50;99719.53;5064991;28;20373;-87
2022/10/26 03:02:33;;;;;;;0.50;0.50;;;;;;;20.12;39.60;99716.03;5049059;28;20044;-87
2022/10/26 03:05:22;;;;;;;0.50;0.50;;;;;;;20.08;39.88;99713.03;5068751;28;20071;-87
2022/10/26 03:07:47;;;;;;;0.55;0.40;;;;;;;20.11;39.29;99708.97;5027936;28;20040;-87
2022/10/26 03:10:13;;;;;;;0.45;0.45;;;;;;;20.10;39.41;99712.75;5068548;28;20025;-87
2022/10/26 03:12:38;;;;;;;0.50;0.50;;;;;;;20.12;39.42;99707.06;5066118;28;20021;-87
2022/10/26 03:15:07;;;;;;;0.40;0.40;;;;;;;20.15;39.25;99701.13;5067183;28;20038;-87
2022/10/26 03:17:33;;;;;;;0.40;0.40;;;;;;;20.08;39.66;99709.50;5065196;28;20028;-87
2022/10/26 03:19:58;;;;;;;0.43;0.38;;;;;;;20.07;39.25;99706.00;5045076;28;20052;-87
2022/10/26 03:22:24;;;;;;;0.30;0.30;;;;;;;20.05;39.62;99700.00;5050476;28;20025;-87
2022/10/26 03:24:50;;;;;;;0.40;0.40;;;;;;;20.09;39.54;99703.00;5047349;28;20024;-87
2022/10/26 03:27:15;;;;;;;0.50;0.50;;;;;;;20.06;39.76;99698.94;5066805;28;20439;-87
2022/10/26 03:29:41;;;;;;;0.40;0.40;;;;;;;20.06;39.65;99698.13;5063424;28;20170;-87
2022/10/26 03:32:07;;;;;;;0.40;0.40;;;;;;;20.13;39.44;99703.25;5066698;28;20078;-87
2022/10/26 03:34:32;;;;;;;0.40;0.40;;;;;;;20.07;39.75;99695.16;5068043;28;20024;-87
2022/10/26 03:36:58;;;;;;;0.40;0.40;;;;;;;20.08;39.54;99696.75;5043005;28;20492;-87
2022/10/26 03:39:24;;;;;;;0.52;0.52;;;;;;;20.05;39.83;99693.75;5067398;28;20043;-87
2022/10/26 03:41:49;;;;;;;0.40;0.40;;;;;;;20.03;39.64;99691.31;5063858;28;20044;-87
2022/10/26 03:44:15;;;;;;;0.40;0.40;;;;;;;20.08;39.82;99696.75;5065422;28;20025;-86
2022/10/26 03:46:40;;;;;;;0.40;0.40;;;;;;;20.03;40.03;99696.75;5050097;28;20024;-87
2022/10/26 03:49:06;;;;;;;0.70;0.50;;;;;;;20.04;39.64;99695.66;5059280;28;20028;-87
2022/10/26 03:51:32;;;;;;;0.32;0.32;;;;;;;20.03;39.65;99687.81;5067713;28;20094;-87
2022/10/26 03:54:02;;;;;;;0.40;0.40;;;;;;;19.97;39.73;99678.00;5063682;28;20044;-87
2022/10/26 03:56:28;;;;;;;0.38;0.38;;;;;;;20.00;40.21;99683.72;5065323;28;20100;-87
2022/10/26 03:58:54;;;;;;;0.40;0.30;;;;;;;20.06;40.07;99685.38;5050118;28;20031;-87
2022/10/26 04:01:19;;;;;;;0.40;0.40;;;;;;;20.02;40.07;99687.00;5040717;28;20438;-87
2022/10/26 04:03:45;;;;;;;0.40;0.40;;;;;;;20.03;39.82;99688.59;5048696;28;20048;-87
2022/10/26 04:06:10;;;;;;;0.30;0.30;;;;;;;20.04;39.81;99684.81;5064656;28;20056;-87
2022/10/26 04:08:36;;;;;;;0.35;0.35;;;;;;;19.99;39.98;99681.25;5066331;28;20051;-87
2022/10/26 04:11:01;;;;;;;0.47;0.47;;;;;;;20.04;39.92;99682.09;5067244;28;20075;-87
2022/10/26 04:13:27;;;;;;;0.95;0.40;;;;;;;20.00;40.06;99683.72;5059524;28;20032;-88
2022/10/26 04:15:53;;;;;;;0.40;0.40;;;;;;;20.03;40.15;99683.19;5067380;28;20017;-87
2022/10/26 04:18:18;;;;;;;0.30;0.30;;;;;;;19.77;39.98;99651.66;5063823;28;20690;-88
2022/10/26 04:20:44;;;;;;;0.40;0.40;;;;;;;20.00;40.05;99681.00;5066749;28;20025;-87
2022/10/26 04:23:11;;;;;;;0.45;0.45;;;;;;;19.85;40.36;99664.69;5065501;28;20049;-88
2022/10/26 04:25:37;;;;;;;0.40;0.40;;;;;;;20.00;40.20;99693.75;5060865;28;20033;-88
2022/10/26 04:28:03;;;;;;;0.40;0.40;;;;;;;20.00;40.25;99696.47;5066676;28;20047;-88
2022/10/26 04:30:29;;;;;;;0.40;0.40;;;;;;;19.99;39.95;99698.38;5064152;28;20063;-88
2022/10/26 04:32:55;;;;;;;0.35;0.35;;;;;;;19.99;40.57;99702.97;5066328;28;20029;-87
2022/10/26 04:35:20;;;;;;;0.40;0.40;;;;;;;19.98;40.08;99695.91;5062654;28;20032;-88
2022/10/26 04:37:46;;;;;;;0.30;0.30;;;;;;;19.97;40.05;99692.41;5061856;28;20032;-88
2022/10/26 04:40:12;;;;;;;0.30;0.30;;;;;;;19.97;40.14;99695.13;5067155;28;20028;-87
2022/10/26 04:42:44;;;;;;;0.32;0.32;;;;;;;19.97;40.38;99695.13;5058868;28;20572;-88
2022/10/26 04:45:10;;;;;;;0.40;0.40;;;;;;;19.92;40.46;99702.41;5066655;28;20035;-88
2022/10/26 04:47:36;;;;;;;0.55;0.40;;;;;;;19.99;40.58;99698.38;5045846;28;20029;-87
2022/10/26 04:50:02;;;;;;;0.40;0.40;;;;;;;19.97;40.51;99703.25;5031071;28;20028;-87
2022/10/26 04:52:27;;;;;;;0.40;0.40;;;;;;;19.99;40.47;99698.38;5067139;28;20047;-88
2022/10/26 04:54:53;;;;;;;0.30;0.30;;;;;;;19.96;40.41;99704.31;5061119;28;20385;-88
2022/10/26 04:57:18;;;;;;;0.45;0.40;;;;;;;19.96;40.49;99701.59;5064631;28;20024;-88
2022/10/26 04:59:44;;;;;;;0.40;0.40;;;;;;;19.93;40.60;99696.72;5061022;28;20088;-87
2022/10/26 05:02:10;;;;;;;0.30;0.30;;;;;;;19.95;40.63;99697.25;5065801;28;20085;-88
2022/10/26 05:04:35;;;;;;;0.30;0.30;;;;;;;19.95;40.49;99694.53;5067141;28;20029;-87
2022/10/26 05:07:01;;;;;;;0.40;0.40;;;;;;;19.94;40.74;99698.34;5062012;28;20033;-88
2022/10/26 05:09:26;;;;;;;0.28;0.28;;;;;;;19.96;40.73;99696.19;5047365;28;20111;-87
2022/10/26 05:11:52;;;;;;;0.30;0.30;;;;;;;19.93;40.78;99699.41;5062669;28;20033;-87
2022/10/26 05:14:17;;;;;;;0.30;0.30;;;;;;;19.94;40.76;99695.63;5062560;28;20067;-87
2022/10/26 05:16:43;;;;;;;0.40;0.40;;;;;;;19.92;40.80;99703.22;5066755;28;20056;-88
2022/10/26 05:19:09;;;;;;;0.30;0.30;;;;;;;19.95;40.72;99696.44;5062650;28;20108;-87
2022/10/26 05:21:35;;;;;;;0.30;0.30;;;;;;;19.92;40.72;99692.38;5066099;28;20497;-87
2022/10/26 05:24:00;;;;;;;0.30;0.30;;;;;;;19.91;40.98;99693.47;5063904;28;20078;-87
2022/10/26 05:26:26;;;;;;;0.45;0.35;;;;;;;19.90;41.00;99694.53;5063513;28;20032;-88
2022/10/26 05:28:52;;;;;;;0.60;0.50;;;;;;;19.91;40.95;99690.75;5066729;28;20074;-87
2022/10/26 05:31:18;;;;;;;0.43;0.43;;;;;;;19.91;40.87;99696.16;5039366;28;20123;-87
2022/10/26 05:33:44;;;;;;;0.35;0.35;;;;;;;19.91;41.10;99696.16;5048966;28;20099;-88
2022/10/26 05:36:09;;;;;;;0.40;0.40;;;;;;;19.88;41.13;99689.38;5031031;28;20033;-87
2022/10/26 05:38:35;;;;;;;0.35;0.35;;;;;;;19.91;40.48;99690.75;5068716;28;20103;-87
2022/10/26 05:41:00;;;;;;;0.40;0.40;;;;;;;19.90;40.61;99691.81;5052458;28;20020;-87
2022/10/26 05:43:26;;;;;;;0.50;0.50;;;;;;;19.88;41.13;99693.97;5061807;28;20465;-87
2022/10/26 05:45:52;;;;;;;0.43;0.43;;;;;;;19.91;40.56;99701.59;5071008;28;20223;-87
2022/10/26 05:48:18;;;;;;;0.32;0.32;;;;;;;19.90;40.91;99699.94;5064577;28;20044;-87
2022/10/26 05:50:44;;;;;;;0.30;0.30;;;;;;;19.89;41.04;99698.34;5051726;28;20020;-87
2022/10/26 05:53:09;;;;;;;0.40;0.40;;;;;;;19.90;41.07;99697.25;5068598;28;20024;-88
2022/10/26 05:55:35;;;;;;;0.30;0.30;;;;;;;19.87;41.16;99695.88;5065834;28;20025;-88
2022/10/26 05:58:01;;;;;;;0.50;0.30;;;;;;;19.89;41.21;99698.34;5069818;28;20043;-87
2022/10/26 06:00:27;;;;;;;0.30;0.30;;;;;;;19.88;40.87;99693.97;5062548;28;20490;-87
2022/10/26 06:03:11;;;;;;;0.30;0.30;;;;;;;19.88;41.25;99693.97;5035082;28;20040;-87
2022/10/26 06:05:46;;;;;;;1.67;0.73;;;;;;;19.86;41.19;99694.25;5067125;28;20293;-87
2022/10/26 06:08:12;;;;;;;0.40;0.40;;;;;;;19.84;41.21;99696.41;5068339;28;20021;-87
2022/10/26 06:10:38;;;;;;;0.35;0.35;;;;;;;19.88;40.70;99696.69;5069749;28;20036;-88
2022/10/26 06:13:04;;;;;;;0.50;0.40;;;;;;;19.77;41.15;99681.50;5045147;28;20024;-87
2022/10/26 06:15:29;;;;;;;0.40;0.40;;;;;;;19.85;41.45;99691.78;5049497;28;20025;-88
2022/10/26 06:18:03;;;;;;;0.45;0.45;;;;;;;19.87;41.19;99689.66;5045191;28;20208;-87
2022/10/26 06:20:41;;;;;;;0.30;0.30;;;;;;;19.86;41.23;99688.00;5049169;28;20056;-87
2022/10/26 06:23:45;;;;;;;0.47;0.40;;;;;;;19.85;41.25;99687.22;5066711;28;20037;-87
2022/10/26 06:26:26;;;;;;;0.40;0.40;;;;;;;19.79;41.52;99687.44;5017234;28;20033;-87
2022/10/26 06:28:55;;;;;;;0.43;0.30;;;;;;;19.84;41.31;99685.56;5069501;28;20162;-87
2022/10/26 06:31:21;;;;;;;0.40;0.40;;;;;;;19.85;41.39;99698.06;5061454;28;20025;-87
2022/10/26 06:33:46;;;;;;;0.32;0.32;;;;;;;19.81;41.49;99690.72;5069051;28;20033;-87
2022/10/26 06:36:22;;;;;;;0.38;0.38;;;;;;;19.84;41.35;99701.03;5047917;28;20056;-87
2022/10/26 06:39:08;;;;;;;0.40;0.40;;;;;;;19.83;41.56;99688.53;5050543;28;20032;-87
2022/10/26 06:41:35;;;;;;;0.30;0.30;;;;;;;19.84;41.42;99695.59;5066265;28;20039;-87
2022/10/26 06:44:03;;;;;;;0.40;0.40;;;;;;;19.82;41.63;99697.78;5065725;28;20024;-87
2022/10/26 06:46:50;;;;;;;0.25;0.25;;;;;;;19.81;41.75;99699.66;5068867;28;20512;-87
2022/10/26 06:49:38;;;;;;;0.40;0.40;;;;;;;19.83;41.47;99704.81;5060729;28;20020;-87
2022/10/26 06:52:53;;;;;;;0.60;0.50;;;;;;;19.80;41.65;99697.19;5051177;28;20351;-87
2022/10/26 06:55:19;;;;;;;0.47;0.47;;;;;;;19.80;41.78;99695.31;4992702;28;20022;-87
2022/10/26 06:57:44;;;;;;;0.30;0.30;;;;;;;19.80;41.62;99689.91;5056025;28;20097;-87
2022/10/26 07:00:20;;;;;;;0.65;0.40;;;;;;;19.81;41.56;99688.00;5045290;28;20466;-87
2022/10/26 07:02:47;;;;;;;0.30;0.30;;;;;;;19.80;41.71;99689.06;5065837;28;20020;-87
2022/10/26 07:05:13;;;;;;;0.35;0.35;;;;;;;19.80;41.78;99689.06;5048694;28;20650;-86
2022/10/26 07:07:43;;;;;;;0.20;0.20;;;;;;;19.78;42.01;99691.22;5047674;28;20032;-87
2022/10/26 07:10:09;;;;;;;0.40;0.40;;;;;;;19.78;41.97;99688.53;5034205;28;20381;-87
2022/10/26 07:12:35;;;;;;;0.32;0.32;;;;;;;19.78;41.61;99694.78;5064054;28;20017;-87
2022/10/26 07:15:01;;;;;;;0.30;0.30;;;;;;;19.80;41.73;99697.19;5068695;28;20029;-87
2022/10/26 07:17:28;;;;;;;0.50;0.40;;;;;;;19.81;41.84;99698.84;5065882;28;20113;-87
2022/10/26 07:19:53;;;;;;;0.32;0.32;;;;;;;19.78;42.03;99696.66;5064313;28;20059;-87
2022/10/26 07:22:19;;;;;;;0.32;0.32;;;;;;;19.77;42.08;99701.28;5067903;28;20024;-87
2022/10/26 07:24:49;;;;;;;0.30;0.30;;;;;;;19.79;41.81;99698.28;5067452;28;20039;-87
2022/10/26 07:27:14;;;;;;;0.30;0.30;;;;;;;19.76;41.98;99699.63;5066717;28;20055;-87
2022/10/26 07:29:40;;;;;;;0.30;0.30;;;;;;;19.75;42.05;99697.19;5063502;28;20033;-87
2022/10/26 07:32:06;;;;;;;0.32;0.32;;;;;;;19.78;41.96;99696.66;5064415;28;20115;-86
2022/10/26 07:34:31;;;;;;;0.40;0.40;;;;;;;19.73;42.16;99699.31;5068449;28;20028;-87
2022/10/26 07:36:58;;;;;;;0.32;0.32;;;;;;;19.76;42.12;99709.66;5063330;28;20028;-87
2022/10/26 07:39:24;;;;;;;0.30;0.30;;;;;;;19.78;42.16;99704.78;5067290;28;20556;-87
2022/10/26 07:41:49;;;;;;;0.30;0.30;;;;;;;19.76;42.36;99705.06;5064355;28;20099;-87
2022/10/26 07:44:15;;;;;;;1.88;0.38;;;;;;;19.77;42.23;99706.69;5066103;28;20027;-87
2022/10/26 07:46:41;;;;;;;0.40;0.40;;;;;;;19.74;42.12;99698.25;5068354;28;20056;-87
2022/10/26 07:49:06;;;;;;;0.30;0.30;;;;;;;19.79;42.17;99699.09;5043167;28;20107;-87
2022/10/26 07:51:32;;;;;;;0.30;0.30;;;;;;;19.76;42.16;99705.06;5067898;28;20372;-87
2022/10/26 07:53:57;;;;;;;0.20;0.20;;;;;;;19.76;42.44;99704.25;5067302;28;20024;-86
2022/10/26 07:56:23;;;;;;;0.30;0.30;;;;;;;19.77;42.28;99709.41;5066492;28;20043;-86
2022/10/26 07:58:54;;;;;;;0.30;0.30;;;;;;;19.76;42.27;99707.75;5067162;28;20033;-86
2022/10/26 08:01:19;;;;;;;0.30;0.30;;;;;;;19.76;42.35;99709.66;5060129;28;20016;-87
2022/10/26 08:03:45;;;;;;;0.30;0.30;;;;;;;19.79;42.21;99709.16;5067164;28;20028;-86
2022/10/26 08:06:10;;;;;;;0.30;0.30;;;;;;;19.72;42.60;99705.84;5062086;28;20154;-87
2022/10/26 08:08:36;;;;;;;0.40;0.40;;;;;;;19.77;42.42;99712.13;5047252;28;20054;-87
2022/10/26 08:11:02;;;;;;;0.30;0.30;;;;;;;19.75;42.37;99705.31;5067442;28;20036;-87
2022/10/26 08:13:28;;;;;;;0.32;0.32;;;;;;;19.77;42.48;99717.53;5061576;28;20406;-87
2022/10/26 08:15:57;;;;;;;0.40;0.40;;;;;;;19.77;42.46;99705.88;5067460;28;20071;-87
2022/10/26 08:18:23;;;;;;;0.30;0.30;;;;;;;19.76;42.71;99720.50;5062647;28;20044;-87
2022/10/26 08:20:48;;;;;;;0.30;0.30;;;;;;;19.75;42.85;99714.28;5065346;28;20481;-87
2022/10/26 08:23:14;;;;;;;0.35;0.35;;;;;;;19.74;42.66;99712.63;5065424;28;20363;-87
2022/10/26 08:25:40;;;;;;;0.85;0.40;;;;;;;19.75;42.65;99713.44;5047744;28;20116;-87
2022/10/26 08:28:05;;;;;;;0.30;0.30;;;;;;;19.70;42.67;99712.31;5065933;28;20137;-87
2022/10/26 08:30:31;;;;;;;0.30;0.30;;;;;;;19.76;42.78;99715.91;5043680;28;20086;-87
2022/10/26 08:33:00;;;;;;;0.30;0.30;;;;;;;19.70;42.65;99711.53;5065654;28;20139;-87
2022/10/26 08:35:26;;;;;;;0.30;0.20;;;;;;;19.77;42.69;99720.25;5045675;28;20035;-87
2022/10/26 08:37:52;;;;;;;0.30;0.30;;;;;;;19.74;42.86;99717.22;5061770;28;20033;-87
2022/10/26 08:40:17;;;;;;;0.20;0.20;;;;;;;19.73;42.94;99726.44;5067290;28;20041;-87
2022/10/26 08:42:44;;;;;;;0.40;0.40;;;;;;;19.76;42.94;99723.22;5031891;28;20281;-87
2022/10/26 08:45:17;;;;;;;0.40;0.40;;;;;;;19.73;42.80;99712.88;5048023;28;20042;-87
2022/10/26 08:47:46;;;;;;;0.35;0.35;;;;;;;19.76;42.87;99715.09;5030273;28;20104;-86
2022/10/26 08:50:23;;;;;;;0.30;0.30;;;;;;;19.76;42.79;99728.66;5043374;28;20482;-87
2022/10/26 08:52:51;;;;;;;0.30;0.30;;;;;;;19.74;43.20;99720.78;5067477;28;20385;-87
2022/10/26 08:55:19;;;;;;;0.38;0.38;;;;;;;19.74;42.93;99722.66;5043287;28;20032;-87
2022/10/26 08:57:46;;;;;;;0.30;0.30;;;;;;;19.74;43.07;99723.47;5032646;28;20115;-87
2022/10/26 09:00:16;;;;;;;0.20;0.20;;;;;;;19.76;43.10;99725.94;5045874;28;20028;-87
2022/10/26 09:02:42;;;;;;;0.30;0.30;;;;;;;19.78;42.99;99729.19;5065652;28;20021;-87
2022/10/26 09:05:14;;;;;;;0.20;0.20;;;;;;;19.76;43.17;99715.09;5065982;28;20109;-87
2022/10/26 09:08:08;;;;;;;0.50;0.40;;;;;;;19.77;42.98;99724.88;5042887;28;20024;-87
2022/10/26 09:10:46;;;;;;;0.40;0.30;;;;;;;19.76;43.07;99731.34;5069360;28;20073;-87
2022/10/26 09:13:39;;;;;;;0.38;0.38;;;;;;;19.75;43.24;99727.84;5049562;28;20025;-87
2022/10/26 09:16:42;;;;;;;0.32;0.32;;;;;;;19.77;43.09;99728.38;5070513;28;20028;-87
2022/10/26 09:19:46;;;;;;;0.40;0.40;;;;;;;19.71;43.46;99723.97;5064650;28;20025;-87
2022/10/26 09:22:16;;;;;;;0.30;0.30;;;;;;;19.73;43.08;99721.00;5037138;28;20219;-87
2022/10/26 09:25:04;;;;;;;0.40;0.40;;;;;;;19.73;43.25;99711.00;5062200;28;20029;-87
2022/10/26 09:27:50;;;;;;;0.75;0.40;;;;;;;19.75;43.35;99721.59;5028519;28;20230;-87
2022/10/26 09:30:18;;;;;;;0.40;0.40;;;;;;;19.74;43.36;99726.19;5045678;28;20017;-87
2022/10/26 09:32:51;;;;;;;0.40;0.40;;;;;;;19.75;43.49;99724.28;5049546;28;20075;-87
2022/10/26 09:35:21;;;;;;;0.30;0.30;;;;;;;19.78;43.51;99718.34;5048709;28;20384;-87
2022/10/26 09:38:29;;;;;;;0.30;0.30;;;;;;;19.75;43.42;99724.28;5043560;28;20025;-87
2022/10/26 09:40:59;;;;;;;0.40;0.30;;;;;;;19.77;43.59;99716.72;5042366;28;20063;-87
2022/10/26 09:43:49;;;;;;;0.35;0.30;;;;;;;19.75;43.42;99721.59;5044201;28;20432;-87
2022/10/26 09:46:17;;;;;;;0.30;0.30;;;;;;;19.75;43.54;99721.59;5050394;28;20466;-87
2022/10/26 09:48:57;;;;;;;0.47;0.47;;;;;;;19.73;43.70;99707.44;5044342;28;20033;-87
2022/10/26 09:51:25;;;;;;;0.30;0.30;;;;;;;19.76;43.71;99732.16;5047148;28;20037;-87
2022/10/26 09:53:52;;;;;;;0.30;0.30;;;;;;;19.78;43.49;99731.91;5045623;28;20436;-87
2022/10/26 09:56:18;;;;;;;0.30;0.30;;;;;;;19.77;43.55;99724.88;5045335;28;20032;-87
2022/10/26 09:59:00;;;;;;;0.30;0.30;;;;;;;19.79;43.59;99728.94;5049087;28;20053;-87
2022/10/26 10:01:29;;;;;;;0.30;0.30;;;;;;;19.78;43.72;99729.19;5046122;28;20032;-87
2022/10/26 10:04:12;;;;;;;0.28;0.20;;;;;;;19.76;43.60;99729.44;5049861;28;20370;-88
2022/10/26 10:06:44;;;;;;;0.30;0.30;;;;;;;19.76;43.65;99726.75;5043625;28;20036;-87
2022/10/26 10:09:17;;;;;;;0.40;0.40;;;;;;;19.76;43.85;99725.94;5046332;28;20049;-87
2022/10/26 10:11:57;;;;;;;0.30;0.30;;;;;;;19.76;43.80;99728.66;5044319;28;20060;-88
2022/10/26 10:14:23;;;;;;;0.30;0.30;;;;;;;19.76;43.75;99728.66;5046806;28;20071;-87
2022/10/26 10:16:53;;;;;;;0.22;0.22;;;;;;;19.74;43.84;99719.94;5047101;28;20045;-88
2022/10/26 10:19:29;;;;;;;0.30;0.30;;;;;;;19.76;44.01;99731.34;5042498;28;20095;-88
2022/10/26 10:21:57;;;;;;;0.30;0.30;;;;;;;19.77;44.10;99727.56;5046822;28;20037;-87
2022/10/26 10:24:24;;;;;;;0.40;0.40;;;;;;;19.78;44.06;99730.03;5042430;28;20088;-88
2022/10/26 10:27:02;;;;;;;0.40;0.40;;;;;;;19.79;44.22;99730.84;5048371;28;20045;-87
2022/10/26 10:29:33;;;;;;;0.40;0.40;;;;;;;19.80;44.19;99730.56;5046198;28;20037;-87
2022/10/26 10:32:00;;;;;;;0.35;0.35;;;;;;;19.80;43.97;99732.44;5047215;28;20052;-88
2022/10/26 10:34:26;;;;;;;0.47;0.40;;;;;;;19.79;44.16;99730.84;5049619;28;20230;-87
2022/10/26 10:36:52;;;;;;;0.40;0.40;;;;;;;19.81;44.29;99734.09;5044385;28;20473;-88
2022/10/26 10:39:43;;;;;;;0.30;0.30;;;;;;;19.80;44.25;99732.44;5047627;28;20104;-88
2022/10/26 10:42:22;;;;;;;0.40;0.40;;;;;;;19.81;44.13;99731.38;5038550;28;20041;-88
2022/10/26 10:44:52;;;;;;;0.38;0.38;;;;;;;19.81;44.28;99734.91;5047572;28;20078;-87
2022/10/26 10:47:22;;;;;;;0.30;0.30;;;;;;;19.81;44.34;99739.50;5030304;28;20077;-87
2022/10/26 10:50:01;;;;;;;0.30;0.30;;;;;;;19.81;44.46;99732.19;5028502;28;20029;-88
2022/10/26 10:52:31;;;;;;;0.40;0.40;;;;;;;19.82;44.54;99735.72;5047508;28;20120;-87
2022/10/26 10:55:12;;;;;;;0.50;0.50;;;;;;;19.80;44.43;99737.88;5040731;28;20486;-87
2022/10/26 10:58:07;;;;;;;0.50;0.50;;;;;;;19.81;44.39;99736.81;5047199;28;20025;-87
2022/10/26 11:00:36;;;;;;;0.30;0.30;;;;;;;19.79;44.38;99728.13;5043332;28;20025;-87
2022/10/26 11:03:12;;;;;;;0.40;0.40;;;;;;;19.80;44.67;99738.72;5046451;28;20029;-87
2022/10/26 11:05:53;;;;;;;0.20;0.20;;;;;;;19.80;44.54;99736.00;5045699;28;20064;-88
2022/10/26 11:08:32;;;;;;;0.40;0.40;;;;;;;19.82;44.55;99735.72;5045429;28;20366;-88
2022/10/26 11:11:08;;;;;;;0.35;0.35;;;;;;;19.82;44.47;99736.53;5045813;28;20021;-88
2022/10/26 11:14:05;;;;;;;0.40;0.40;;;;;;;19.83;44.66;99743.59;5042072;28;20028;-87
2022/10/26 11:16:38;;;;;;;0.30;0.30;;;;;;;19.85;44.75;99741.44;5044261;28;20029;-88
2022/10/26 11:19:13;;;;;;;0.63;0.30;;;;;;;19.84;44.76;99744.41;5044611;28;20028;-88
2022/10/26 11:21:38;;;;;;;0.50;0.50;;;;;;;19.84;44.63;99739.00;5046362;28;20116;-87
2022/10/26 11:24:14;;;;;;;0.50;0.50;;;;;;;19.84;44.93;99742.50;5025703;28;21107;-87
2022/10/26 11:26:43;;;;;;;0.65;0.50;;;;;;;19.84;44.81;99747.13;5032844;28;21852;-88
2022/10/26 11:29:18;;;;;;;0.40;0.40;;;;;;;19.86;44.83;99742.25;5066603;28;20028;-88
2022/10/26 11:31:49;;;;;;;0.40;0.40;;;;;;;19.84;44.83;99750.63;5067605;28;20459;-88
2022/10/26 11:34:41;;;;;;;0.88;0.60;;;;;;;19.84;44.88;99755.25;5067658;28;20035;-88
2022/10/26 11:37:17;;;;;;;0.30;0.30;;;;;;;19.85;45.01;99746.88;5062046;28;20408;-88
2022/10/26 11:40:00;;;;;;;0.40;0.40;;;;;;;19.85;44.94;99751.44;5050682;28;20099;-88
2022/10/26 11:42:47;;;;;;;0.35;0.35;;;;;;;19.88;44.89;99753.63;5026533;28;20017;-88
2022/10/26 11:45:22;;;;;;;0.30;0.30;;;;;;;19.87;45.02;99752.81;5046785;28;20028;-88
2022/10/26 11:47:51;;;;;;;0.50;0.50;;;;;;;19.87;44.93;99758.25;5047061;28;20217;-88
2022/10/26 11:50:31;;;;;;;0.30;0.30;;;;;;;19.87;45.21;99757.44;5066496;28;20238;-88